Terminal Aerodrome Forecast
Issued by NWS

Home | Current Version | Previous Version | Text Only | Print | Product List | Glossary On
Versions: 1 2 3 4 5 6 7 8 9 10 11 12 13 14 15 16 17 18 19 20 21 22 23 24 25 26
000
FTUS42 KFFC 200500
TAFFTY
TAF
KFTY 200529Z 2006/2106 23004KT P6SM FEW009 BKN250
     FM200900 24002KT 4SM BR BKN008
     FM201300 27004KT P6SM BKN020
     FM201500 29006KT P6SM SCT035
     FM201700 28008KT P6SM SCT045 PROB30 2018/2022 4SM -TSRA
      BKN030CB
     FM210200 28003KT P6SM FEW050=

USA.gov is the U.S. government's official web portal to all federal, state and local government web resources and services.